Time;durP1;ratioP1;P1;durP2;ratioP2;P2;SDS_P1;SDS_P2;PMS_P1;PMS_P2;Temp;Humidity;BMP_temperature;BMP_pressure;BME280_temperature;BME280_humidity;BME280_pressure;Samples;Min_cycle;Max_cycle;Signal;HPM_P1;HPM_P2
2022/10/24 00:00:10;;;;;;;61.70;32.42;;;;;;;;;;5046343;28;20494;-81
2022/10/24 00:02:36;;;;;;;49.28;31.67;;;;;;;;;;5059187;28;20033;-80
2022/10/24 00:05:29;;;;;;;56.80;32.75;;;;;;;;;;5074624;28;20028;-79
2022/10/24 00:08:03;;;;;;;58.53;33.58;;;;;;;;;;5079975;22;20037;-78
2022/10/24 00:11:04;;;;;;;57.25;35.75;;;;;;;;;;5056630;28;20151;-80
2022/10/24 00:13:58;;;;;;;73.13;35.55;;;;;;;;;;5065429;28;20064;-80
2022/10/24 00:16:34;;;;;;;60.63;34.67;;;;;;;;;;5057255;28;20033;-80
2022/10/24 00:19:07;;;;;;;47.55;32.85;;;;;;;;;;5053881;28;20503;-78
2022/10/24 00:21:59;;;;;;;58.60;35.90;;;;;;;;;;5058845;28;20092;-80
2022/10/24 00:24:46;;;;;;;63.42;34.90;;;;;;;;;;5050968;28;20064;-80
2022/10/24 00:27:14;;;;;;;54.70;33.70;;;;;;;;;;4998034;28;20034;-80
2022/10/24 00:29:40;;;;;;;56.60;33.88;;;;;;;;;;4985262;28;20048;-78
2022/10/24 00:39:23;;;;;;;53.53;34.25;;;;;;;;;;5034059;28;20010;-82
2022/10/24 00:41:49;;;;;;;50.05;32.92;;;;;;;;;;5014463;28;20014;-79
2022/10/24 00:48:24;;;;;;;;;;;;;;;;;;;;;
2022/10/24 00:50:55;;;;;;;53.47;32.85;;;;;;;;;;4958023;28;20032;-80
2022/10/24 00:53:25;;;;;;;58.03;34.47;;;;;;;;;;5011016;28;20080;-80
2022/10/24 00:55:53;;;;;;;53.78;33.90;;;;;;;;;;5041652;28;20503;-81
2022/10/24 00:58:44;;;;;;;47.58;32.22;;;;;;;;;;5054302;28;20065;-79
2022/10/24 01:01:13;;;;;;;;;;;;;;;;;;5056818;28;20025;-80
2022/10/24 01:03:42;;;;;;;44.20;29.65;;;;;;;;;;5055221;28;20422;-81
2022/10/24 01:06:13;;;;;;;43.45;30.30;;;;;;;;;;5055001;28;20447;-80
2022/10/24 01:08:59;;;;;;;41.70;30.42;;;;;;;;;;5056474;28;20027;-80
2022/10/24 01:11:25;;;;;;;43.28;29.10;;;;;;;;;;5055796;28;20032;-79
2022/10/24 01:17:07;;;;;;;40.47;28.35;;;;;;;;;;5063543;28;20020;-80
2022/10/24 01:19:59;;;;;;;40.40;28.23;;;;;;;;;;5059129;28;20153;-80
2022/10/24 01:22:54;;;;;;;42.60;28.13;;;;;;;;;;5029297;28;20029;-79
2022/10/24 01:25:41;;;;;;;41.42;29.00;;;;;;;;;;5029667;28;20034;-81
2022/10/24 01:28:46;;;;;;;39.72;26.63;;;;;;;;;;5031043;28;20080;-80
2022/10/24 01:31:16;;;;;;;38.40;26.98;;;;;;;;;;5060283;28;20043;-80
2022/10/24 01:33:54;;;;;;;41.30;27.30;;;;;;;;;;5053277;28;20036;-79
2022/10/24 01:37:04;;;;;;;39.70;27.60;;;;;;;;;;5052085;28;20024;-79
2022/10/24 01:39:36;;;;;;;38.60;26.58;;;;;;;;;;5059157;28;20025;-79
2022/10/24 01:42:08;;;;;;;40.05;25.15;;;;;;;;;;5060568;28;20525;-79
2022/10/24 01:47:59;;;;;;;37.45;24.40;;;;;;;;;;5059634;28;20056;-79
2022/10/24 01:50:38;;;;;;;39.75;24.77;;;;;;;;;;5063174;28;20028;-79
2022/10/24 01:58:24;;;;;;;33.88;22.80;;;;;;;;;;5080656;22;20040;-79
2022/10/24 02:00:52;;;;;;;36.95;25.73;;;;;;;;;;5057394;28;20033;-79
2022/10/24 02:03:52;;;;;;;32.67;23.70;;;;;;;;;;5055665;28;20037;-79
2022/10/24 02:09:30;;;;;;;35.58;23.67;;;;;;;;;;5066852;28;20497;-79
2022/10/24 02:12:05;;;;;;;34.33;22.73;;;;;;;;;;5071831;28;20040;-79
2022/10/24 02:14:36;;;;;;;34.55;25.13;;;;;;;;;;5069500;28;20055;-78
2022/10/24 02:17:10;;;;;;;;;;;;;;;;;;5072485;28;20488;-78
2022/10/24 02:20:11;;;;;;;37.28;24.27;;;;;;;;;;5074814;28;19912;-79
2022/10/24 02:22:37;;;;;;;38.45;24.70;;;;;;;;;;5065378;28;20458;-78
2022/10/24 02:25:07;;;;;;;44.22;26.67;;;;;;;;;;5074231;28;20033;-78
2022/10/24 02:27:51;;;;;;;41.38;27.02;;;;;;;;;;5055346;28;20070;-78
2022/10/24 02:30:22;;;;;;;36.83;24.85;;;;;;;;;;5074319;28;20103;-79
2022/10/24 02:32:52;;;;;;;35.85;25.35;;;;;;;;;;5056620;28;20036;-79
2022/10/24 02:35:31;;;;;;;37.30;25.85;;;;;;;;;;5074404;28;20009;-78
2022/10/24 02:38:08;;;;;;;34.17;25.90;;;;;;;;;;5073604;28;20429;-79
2022/10/24 02:40:38;;;;;;;39.17;27.38;;;;;;;;;;5074817;28;20020;-78
2022/10/24 02:43:04;;;;;;;39.53;27.33;;;;;;;;;;5074208;28;20035;-78
2022/10/24 02:45:51;;;;;;;39.97;27.05;;;;;;;;;;5061896;28;20059;-78
2022/10/24 02:48:54;;;;;;;43.17;27.10;;;;;;;;;;5074798;28;20394;-78
2022/10/24 02:51:49;;;;;;;38.50;27.42;;;;;;;;;;5073503;28;20043;-79
2022/10/24 02:54:18;;;;;;;44.55;27.73;;;;;;;;;;5020356;28;20078;-79
2022/10/24 02:56:47;;;;;;;39.65;25.98;;;;;;;;;;5074166;28;20027;-79
2022/10/24 02:59:36;;;;;;;45.28;29.02;;;;;;;;;;5072912;28;20111;-79
2022/10/24 03:02:55;;;;;;;40.38;25.75;;;;;;;;;;5060527;28;20027;-79
2022/10/24 03:05:33;;;;;;;39.85;25.90;;;;;;;;;;4992994;28;20497;-78
2022/10/24 03:08:02;;;;;;;51.05;29.23;;;;;;;;;;4991999;28;20030;-78
2022/10/24 03:13:46;;;;;;;47.90;28.92;;;;;;;;;;5075439;28;20440;-80
2022/10/24 03:16:26;;;;;;;44.17;29.00;;;;;;;;;;5077863;28;20074;-80
2022/10/24 03:19:27;;;;;;;;;;;;;;;;;;;;;
2022/10/24 03:22:44;;;;;;;37.97;24.42;;;;;;;;;;5076270;28;20084;-80
2022/10/24 03:28:22;;;;;;;46.30;24.88;;;;;;;;;;4965428;28;20397;-79
2022/10/24 03:30:55;;;;;;;38.35;25.05;;;;;;;;;;4983682;28;20073;-79
2022/10/24 03:33:35;;;;;;;37.92;23.08;;;;;;;;;;5048325;28;20055;-79
2022/10/24 03:36:07;;;;;;;34.08;21.80;;;;;;;;;;5060254;28;20039;-80
2022/10/24 03:39:02;;;;;;;36.50;23.40;;;;;;;;;;5077499;28;20078;-80
2022/10/24 03:50:41;;;;;;;40.20;22.63;;;;;;;;;;3236617;26;20654;-79
2022/10/24 03:53:21;;;;;;;45.30;25.50;;;;;;;;;;5076318;28;20067;-79
2022/10/24 03:58:54;;;;;;;41.28;24.45;;;;;;;;;;5033144;28;20025;-80
2022/10/24 04:01:29;;;;;;;42.63;25.00;;;;;;;;;;5046280;28;20041;-77
2022/10/24 04:03:55;;;;;;;42.97;27.42;;;;;;;;;;5048524;28;20060;-78
2022/10/24 04:06:24;;;;;;;50.72;26.95;;;;;;;;;;5056347;28;20029;-78
2022/10/24 04:08:53;;;;;;;40.30;25.08;;;;;;;;;;5054883;28;20025;-79
2022/10/24 04:11:59;;;;;;;40.95;25.88;;;;;;;;;;5038693;28;20088;-76
2022/10/24 04:14:49;;;;;;;;;;;;;;;;;;;;;
2022/10/24 04:17:49;;;;;;;43.95;25.02;;;;;;;;;;5063213;28;20059;-82
2022/10/24 04:20:18;;;;;;;37.33;24.23;;;;;;;;;;5051751;28;20045;-79
2022/10/24 04:22:52;;;;;;;39.53;25.63;;;;;;;;;;5037940;28;20032;-77
2022/10/24 04:25:18;;;;;;;39.13;24.70;;;;;;;;;;5057853;28;20028;-79
2022/10/24 04:27:45;;;;;;;38.28;24.70;;;;;;;;;;5052309;28;20571;-78
2022/10/24 04:30:28;;;;;;;;;;;;;;;;;;;;;
2022/10/24 04:33:06;;;;;;;34.70;21.52;;;;;;;;;;5054901;28;20243;-79
2022/10/24 04:35:32;;;;;;;35.38;21.40;;;;;;;;;;5045044;28;20043;-76
2022/10/24 04:37:58;;;;;;;36.70;21.45;;;;;;;;;;5051297;28;20021;-76
2022/10/24 04:40:24;;;;;;;24.73;16.42;;;;;;;;;;5050783;28;20428;-77
2022/10/24 04:42:50;;;;;;;34.95;19.10;;;;;;;;;;5054559;28;20074;-79
2022/10/24 04:45:16;;;;;;;27.73;16.85;;;;;;;;;;5064143;28;20040;-80
2022/10/24 04:47:42;;;;;;;20.33;12.50;;;;;;;;;;5046903;28;20037;-77
2022/10/24 04:50:08;;;;;;;20.08;10.27;;;;;;;;;;5064281;28;20086;-80
2022/10/24 04:52:34;;;;;;;19.73;8.93;;;;;;;;;;5064962;28;20025;-80
2022/10/24 04:55:00;;;;;;;22.58;10.43;;;;;;;;;;5062456;28;20141;-80
2022/10/24 04:57:26;;;;;;;19.88;7.97;;;;;;;;;;5056593;28;20032;-75
2022/10/24 04:59:52;;;;;;;19.23;7.40;;;;;;;;;;5039264;28;20025;-80
2022/10/24 05:02:18;;;;;;;14.50;6.95;;;;;;;;;;5054794;28;20052;-79
2022/10/24 05:04:50;;;;;;;17.65;7.85;;;;;;;;;;5037255;28;20033;-79
2022/10/24 05:07:16;;;;;;;14.02;6.32;;;;;;;;;;5041798;28;20104;-81
2022/10/24 05:09:42;;;;;;;21.48;9.20;;;;;;;;;;5054187;28;20025;-79
2022/10/24 05:12:08;;;;;;;27.60;14.63;;;;;;;;;;5052240;28;20078;-78
2022/10/24 05:14:34;;;;;;;20.05;13.05;;;;;;;;;;5052436;28;20029;-79
2022/10/24 05:17:00;;;;;;;18.00;11.27;;;;;;;;;;5053394;28;20055;-77
2022/10/24 05:19:26;;;;;;;23.77;16.45;;;;;;;;;;5057155;28;20075;-79
2022/10/24 05:21:52;;;;;;;25.15;13.82;;;;;;;;;;5058950;28;20045;-81
2022/10/24 05:24:18;;;;;;;25.83;15.73;;;;;;;;;;5046427;28;20025;-77
2022/10/24 05:26:44;;;;;;;24.95;14.70;;;;;;;;;;5042078;28;20021;-78
2022/10/24 05:29:10;;;;;;;18.98;10.73;;;;;;;;;;5035783;28;20024;-79
2022/10/24 05:31:36;;;;;;;18.02;6.25;;;;;;;;;;5044099;28;20017;-79
2022/10/24 05:34:02;;;;;;;16.02;7.43;;;;;;;;;;5047058;28;20021;-78
2022/10/24 05:36:28;;;;;;;16.00;5.93;;;;;;;;;;5061100;28;20055;-78
2022/10/24 05:38:54;;;;;;;19.42;10.25;;;;;;;;;;5061310;28;20017;-79
2022/10/24 05:41:20;;;;;;;22.67;14.52;;;;;;;;;;5055677;28;20036;-81
2022/10/24 05:43:46;;;;;;;26.48;15.00;;;;;;;;;;5042085;28;20135;-80
2022/10/24 05:46:12;;;;;;;30.05;16.20;;;;;;;;;;5055427;28;20025;-77
2022/10/24 05:48:38;;;;;;;25.60;16.52;;;;;;;;;;5057337;28;20255;-79
2022/10/24 05:51:04;;;;;;;34.13;17.20;;;;;;;;;;5074951;28;20029;-82
2022/10/24 05:53:30;;;;;;;28.02;16.42;;;;;;;;;;5079360;28;20033;-80
2022/10/24 05:55:56;;;;;;;28.02;16.58;;;;;;;;;;5078833;28;20009;-77
2022/10/24 05:58:23;;;;;;;21.85;14.38;;;;;;;;;;5054854;28;20067;-84
2022/10/24 06:00:49;;;;;;;27.92;14.55;;;;;;;;;;5070143;28;20021;-78
2022/10/24 06:03:15;;;;;;;30.20;14.40;;;;;;;;;;5056584;28;20080;-78
2022/10/24 06:05:41;;;;;;;23.73;15.05;;;;;;;;;;5038879;28;20376;-78
2022/10/24 06:08:07;;;;;;;24.27;12.57;;;;;;;;;;5056643;28;20160;-77
2022/10/24 06:10:33;;;;;;;29.85;15.20;;;;;;;;;;5039741;28;20032;-79
2022/10/24 06:12:59;;;;;;;19.17;12.70;;;;;;;;;;5057869;28;20102;-81
2022/10/24 06:15:25;;;;;;;25.48;13.43;;;;;;;;;;5027036;28;20039;-81
2022/10/24 06:17:51;;;;;;;26.55;15.40;;;;;;;;;;5040019;28;20116;-80
2022/10/24 06:20:17;;;;;;;23.13;15.18;;;;;;;;;;5057923;28;20130;-79
2022/10/24 06:22:46;;;;;;;29.88;15.35;;;;;;;;;;5060008;28;20049;-82
2022/10/24 06:25:13;;;;;;;30.55;15.93;;;;;;;;;;5058045;28;20029;-79
2022/10/24 06:27:40;;;;;;;25.63;15.23;;;;;;;;;;5040377;28;20029;-79
2022/10/24 06:30:06;;;;;;;25.13;15.05;;;;;;;;;;5058697;28;20025;-79
2022/10/24 06:32:32;;;;;;;22.67;14.35;;;;;;;;;;5060217;28;20050;-77
2022/10/24 06:34:58;;;;;;;27.88;13.55;;;;;;;;;;5040405;28;20021;-79
2022/10/24 06:37:24;;;;;;;19.67;13.45;;;;;;;;;;5058683;28;20021;-79
2022/10/24 06:39:50;;;;;;;24.60;14.70;;;;;;;;;;5040577;28;20025;-81
2022/10/24 06:42:16;;;;;;;20.50;12.93;;;;;;;;;;5059890;28;20097;-82
2022/10/24 06:44:42;;;;;;;25.35;13.80;;;;;;;;;;5059522;28;20448;-79
2022/10/24 06:47:08;;;;;;;19.92;12.98;;;;;;;;;;5057463;28;20224;-77
2022/10/24 06:49:34;;;;;;;29.50;14.30;;;;;;;;;;5041752;28;20059;-79
2022/10/24 06:52:00;;;;;;;21.80;13.45;;;;;;;;;;5061808;28;20483;-79
2022/10/24 06:54:26;;;;;;;23.00;12.85;;;;;;;;;;5044038;28;20028;-79
2022/10/24 06:56:52;;;;;;;20.88;13.20;;;;;;;;;;5061114;28;20016;-79
2022/10/24 06:59:18;;;;;;;23.05;13.85;;;;;;;;;;5059164;28;20052;-79
2022/10/24 07:01:45;;;;;;;21.58;12.85;;;;;;;;;;5058616;28;20032;-79
2022/10/24 07:04:11;;;;;;;21.80;12.15;;;;;;;;;;5055390;28;20053;-78
2022/10/24 07:06:37;;;;;;;25.23;12.63;;;;;;;;;;5054829;28;20449;-81
2022/10/24 07:09:04;;;;;;;20.30;12.43;;;;;;;;;;5052229;28;20096;-77
2022/10/24 07:11:30;;;;;;;25.42;13.27;;;;;;;;;;5052434;28;20021;-78
2022/10/24 07:13:56;;;;;;;21.20;11.60;;;;;;;;;;5052344;28;20490;-78
2022/10/24 07:16:22;;;;;;;18.70;12.75;;;;;;;;;;5052314;28;20083;-79
2022/10/24 07:18:48;;;;;;;23.20;13.10;;;;;;;;;;5050935;28;20029;-80
2022/10/24 07:21:15;;;;;;;18.33;12.27;;;;;;;;;;5052203;28;20049;-79
2022/10/24 07:23:41;;;;;;;20.88;12.35;;;;;;;;;;5052508;28;20029;-78
2022/10/24 07:26:10;;;;;;;16.52;9.95;;;;;;;;;;5035957;28;20024;-77
2022/10/24 07:28:36;;;;;;;16.38;11.00;;;;;;;;;;5055006;28;20040;-79
2022/10/24 07:31:03;;;;;;;22.35;10.90;;;;;;;;;;5057161;28;20025;-78
2022/10/24 07:33:29;;;;;;;15.25;10.05;;;;;;;;;;5038333;28;20021;-77
2022/10/24 07:35:55;;;;;;;18.52;10.55;;;;;;;;;;5055040;28;20025;-78
2022/10/24 07:38:22;;;;;;;15.32;10.00;;;;;;;;;;5039691;28;20013;-79
2022/10/24 07:40:48;;;;;;;18.48;10.07;;;;;;;;;;5035886;28;20456;-78
2022/10/24 07:43:14;;;;;;;15.70;9.68;;;;;;;;;;5053216;28;20086;-78
2022/10/24 07:45:40;;;;;;;18.92;10.20;;;;;;;;;;5053285;28;20017;-77
2022/10/24 07:48:06;;;;;;;19.05;10.20;;;;;;;;;;5052449;28;20116;-78
2022/10/24 07:50:40;;;;;;;15.25;9.88;;;;;;;;;;5053323;28;20040;-78
2022/10/24 07:53:06;;;;;;;15.77;9.68;;;;;;;;;;5051959;28;20032;-79
2022/10/24 07:55:32;;;;;;;15.93;10.48;;;;;;;;;;5053622;28;20391;-78
2022/10/24 07:57:58;;;;;;;18.67;10.18;;;;;;;;;;5053686;28;20017;-78
2022/10/24 08:00:24;;;;;;;19.83;10.07;;;;;;;;;;5047143;28;20391;-78
2022/10/24 08:02:50;;;;;;;13.07;9.68;;;;;;;;;;5046080;28;20025;-78
2022/10/24 08:05:16;;;;;;;16.33;8.48;;;;;;;;;;5053440;28;20021;-78
2022/10/24 08:07:42;;;;;;;19.25;9.43;;;;;;;;;;5052620;28;20036;-78
2022/10/24 08:10:11;;;;;;;11.80;8.15;;;;;;;;;;5052905;28;20064;-78
2022/10/24 08:12:37;;;;;;;16.63;8.93;;;;;;;;;;5043106;28;20091;-81
2022/10/24 08:15:03;;;;;;;14.85;9.23;;;;;;;;;;5049339;28;20096;-81
2022/10/24 08:17:29;;;;;;;12.13;8.60;;;;;;;;;;5052313;28;20021;-79
2022/10/24 08:19:55;;;;;;;16.70;8.63;;;;;;;;;;5051980;28;20048;-80
2022/10/24 08:22:21;;;;;;;21.58;8.40;;;;;;;;;;5040264;28;20028;-80
2022/10/24 08:24:47;;;;;;;12.75;8.27;;;;;;;;;;5039202;28;20075;-80
2022/10/24 08:27:13;;;;;;;13.10;8.98;;;;;;;;;;5052292;28;20021;-78
2022/10/24 08:29:39;;;;;;;14.60;8.45;;;;;;;;;;5052994;28;20098;-78
2022/10/24 08:32:05;;;;;;;14.93;8.20;;;;;;;;;;5047283;28;20394;-78
2022/10/24 08:34:32;;;;;;;14.57;8.73;;;;;;;;;;5046002;28;20021;-78
2022/10/24 08:36:58;;;;;;;13.20;8.55;;;;;;;;;;5052056;28;20143;-76
2022/10/24 08:39:25;;;;;;;14.15;9.10;;;;;;;;;;5052553;28;20165;-78
2022/10/24 08:41:54;;;;;;;12.88;8.18;;;;;;;;;;5052647;28;20379;-78
2022/10/24 08:44:38;;;;;;;11.30;7.80;;;;;;;;;;5052893;28;20029;-78
2022/10/24 08:47:20;;;;;;;14.98;8.15;;;;;;;;;;5034015;28;20009;-77
2022/10/24 08:49:55;;;;;;;16.27;8.65;;;;;;;;;;5052464;28;20044;-77
2022/10/24 08:52:32;;;;;;;12.15;9.23;;;;;;;;;;5052621;28;20021;-78
2022/10/24 08:54:59;;;;;;;13.98;9.05;;;;;;;;;;5038912;28;20398;-78
2022/10/24 08:57:27;;;;;;;14.35;7.78;;;;;;;;;;5052282;28;20024;-77
2022/10/24 08:59:56;;;;;;;12.05;8.88;;;;;;;;;;5052184;28;20028;-78
2022/10/24 09:02:26;;;;;;;14.45;8.73;;;;;;;;;;5053342;28;20501;-78
2022/10/24 09:04:55;;;;;;;15.45;7.93;;;;;;;;;;5052261;28;20025;-80
2022/10/24 09:07:22;;;;;;;13.57;8.77;;;;;;;;;;5043013;28;20022;-79
2022/10/24 09:09:49;;;;;;;13.55;8.13;;;;;;;;;;5046995;28;20086;-77
2022/10/24 09:12:17;;;;;;;12.95;7.88;;;;;;;;;;5052826;28;20025;-79
2022/10/24 09:14:44;;;;;;;13.82;8.50;;;;;;;;;;5051825;28;20104;-77
2022/10/24 09:17:20;;;;;;;16.92;8.40;;;;;;;;;;5043791;28;20029;-77
2022/10/24 09:19:52;;;;;;;14.52;8.43;;;;;;;;;;5031607;28;20025;-82
2022/10/24 09:22:19;;;;;;;13.32;7.88;;;;;;;;;;5052106;28;20024;-78
2022/10/24 09:24:48;;;;;;;14.98;7.88;;;;;;;;;;5051510;28;20033;-81
2022/10/24 09:27:17;;;;;;;13.63;7.78;;;;;;;;;;5050258;28;20063;-79
2022/10/24 09:29:43;;;;;;;16.20;8.07;;;;;;;;;;5051666;28;20293;-78
2022/10/24 09:32:19;;;;;;;13.05;7.65;;;;;;;;;;5051939;28;20032;-79
2022/10/24 09:34:46;;;;;;;22.98;7.82;;;;;;;;;;5032598;28;20442;-79
2022/10/24 09:37:44;;;;;;;14.73;7.95;;;;;;;;;;5050917;28;20044;-79
2022/10/24 09:40:27;;;;;;;11.27;7.38;;;;;;;;;;5028135;28;20041;-78
2022/10/24 09:42:53;;;;;;;14.13;7.53;;;;;;;;;;5051203;28;20025;-77
2022/10/24 09:45:19;;;;;;;14.30;7.88;;;;;;;;;;5050580;28;20099;-79
2022/10/24 09:47:45;;;;;;;16.85;8.00;;;;;;;;;;5049335;28;20546;-79
2022/10/24 09:50:19;;;;;;;15.10;8.23;;;;;;;;;;5049097;28;20515;-77
2022/10/24 09:52:48;;;;;;;13.75;8.15;;;;;;;;;;5033192;28;20040;-78
2022/10/24 09:55:23;;;;;;;11.10;7.22;;;;;;;;;;5050959;28;20114;-79
2022/10/24 09:57:52;;;;;;;14.38;7.88;;;;;;;;;;5050367;28;20027;-78
2022/10/24 10:00:29;;;;;;;14.45;8.55;;;;;;;;;;5050457;28;20044;-79
2022/10/24 10:02:58;;;;;;;16.15;7.80;;;;;;;;;;5034867;28;20029;-78
2022/10/24 10:05:24;;;;;;;15.95;7.93;;;;;;;;;;5037447;28;20024;-80
2022/10/24 10:07:51;;;;;;;13.60;8.38;;;;;;;;;;5050969;28;20021;-79
2022/10/24 10:10:17;;;;;;;13.57;8.73;;;;;;;;;;5038170;28;20017;-79
2022/10/24 10:12:44;;;;;;;16.83;8.10;;;;;;;;;;5034433;28;20116;-79
2022/10/24 10:15:19;;;;;;;16.90;8.05;;;;;;;;;;5053245;28;20021;-79
2022/10/24 10:17:49;;;;;;;15.40;8.02;;;;;;;;;;5034527;28;20119;-78
2022/10/24 10:20:37;;;;;;;18.23;7.50;;;;;;;;;;5053008;28;20074;-78
2022/10/24 10:23:16;;;;;;;17.35;7.20;;;;;;;;;;5037299;28;20033;-78
2022/10/24 10:25:42;;;;;;;13.60;7.22;;;;;;;;;;5036173;28;20033;-78
2022/10/24 10:28:19;;;;;;;9.75;6.78;;;;;;;;;;5051040;28;20116;-76
2022/10/24 10:30:49;;;;;;;9.85;6.30;;;;;;;;;;5054338;28;20025;-79
2022/10/24 10:33:54;;;;;;;9.70;6.22;;;;;;;;;;5066274;28;20033;-80
2022/10/24 10:36:22;;;;;;;10.98;5.82;;;;;;;;;;5000989;28;20085;-78
2022/10/24 10:39:07;;;;;;;13.68;6.22;;;;;;;;;;4996511;28;20101;-77
2022/10/24 10:41:45;;;;;;;14.02;4.57;;;;;;;;;;5037887;28;20029;-78
2022/10/24 10:44:14;;;;;;;10.80;4.47;;;;;;;;;;5055922;28;20484;-77
2022/10/24 10:46:46;;;;;;;9.88;3.95;;;;;;;;;;5040785;28;20563;-79
2022/10/24 10:49:23;;;;;;;7.15;3.60;;;;;;;;;;5053536;28;20530;-78
2022/10/24 10:51:58;;;;;;;8.10;3.40;;;;;;;;;;5036531;28;20021;-78
2022/10/24 10:54:37;;;;;;;10.20;2.95;;;;;;;;;;5054247;28;20079;-78
2022/10/24 10:57:07;;;;;;;8.18;3.08;;;;;;;;;;5056443;28;20024;-82
2022/10/24 10:59:52;;;;;;;9.43;3.72;;;;;;;;;;5056585;28;20025;-79
2022/10/24 11:02:37;;;;;;;4.93;2.30;;;;;;;;;;5035831;28;20241;-79
2022/10/24 11:05:09;;;;;;;8.82;3.90;;;;;;;;;;5052400;28;20108;-79
2022/10/24 11:07:41;;;;;;;6.53;2.70;;;;;;;;;;5055396;28;20581;-79
2022/10/24 11:10:10;;;;;;;10.30;3.08;;;;;;;;;;5054470;28;20056;-78
2022/10/24 11:12:37;;;;;;;7.10;2.50;;;;;;;;;;5043736;28;20025;-81
2022/10/24 11:15:22;;;;;;;8.85;2.50;;;;;;;;;;5051328;28;20021;-79
2022/10/24 11:17:52;;;;;;;8.90;2.50;;;;;;;;;;5056091;28;20123;-79
2022/10/24 11:20:33;;;;;;;8.60;2.20;;;;;;;;;;5051789;28;20021;-79
2022/10/24 11:23:21;;;;;;;4.95;1.55;;;;;;;;;;5047517;28;20074;-79
2022/10/24 11:25:49;;;;;;;5.25;1.60;;;;;;;;;;5043384;28;20028;-78
2022/10/24 11:28:31;;;;;;;5.30;1.63;;;;;;;;;;5051392;28;20068;-80
2022/10/24 11:31:32;;;;;;;4.47;1.40;;;;;;;;;;5045218;28;20020;-77
2022/10/24 11:34:02;;;;;;;10.98;2.25;;;;;;;;;;4991849;28;20069;-77
2022/10/24 11:36:30;;;;;;;5.35;1.40;;;;;;;;;;5042336;28;20044;-80
2022/10/24 11:38:59;;;;;;;7.85;1.92;;;;;;;;;;5052519;28;20025;-77
2022/10/24 11:41:28;;;;;;;3.15;0.98;;;;;;;;;;5053190;28;20056;-77
2022/10/24 11:43:58;;;;;;;5.13;1.75;;;;;;;;;;5035588;28;20021;-78
2022/10/24 11:46:32;;;;;;;4.05;1.70;;;;;;;;;;5053133;28;20487;-77
2022/10/24 11:49:02;;;;;;;5.70;1.38;;;;;;;;;;5050945;28;20025;-79
2022/10/24 11:51:40;;;;;;;12.98;2.13;;;;;;;;;;5054990;28;20041;-77
2022/10/24 11:54:15;;;;;;;5.45;2.10;;;;;;;;;;5055657;28;20525;-78
2022/10/24 11:56:45;;;;;;;6.65;1.83;;;;;;;;;;5060494;28;20025;-78
2022/10/24 11:59:22;;;;;;;6.25;1.60;;;;;;;;;;5057668;28;20041;-78
2022/10/24 12:01:55;;;;;;;7.43;1.60;;;;;;;;;;5055569;28;20025;-77
2022/10/24 12:04:33;;;;;;;5.10;1.50;;;;;;;;;;5052971;28;20025;-81
2022/10/24 12:07:05;;;;;;;4.65;1.67;;;;;;;;;;5033745;28;20017;-80
2022/10/24 12:09:31;;;;;;;3.45;1.30;;;;;;;;;;5049957;28;20086;-79
2022/10/24 12:12:10;;;;;;;8.73;1.70;;;;;;;;;;5034396;28;20029;-77
2022/10/24 12:14:49;;;;;;;3.95;1.02;;;;;;;;;;5052716;28;20021;-78
2022/10/24 12:17:42;;;;;;;3.53;1.92;;;;;;;;;;5039436;28;20017;-77
2022/10/24 12:20:13;;;;;;;3.05;1.25;;;;;;;;;;5036372;28;20029;-77
2022/10/24 12:22:42;;;;;;;1.45;0.68;;;;;;;;;;5052508;28;20021;-79
2022/10/24 12:25:28;;;;;;;1.38;0.68;;;;;;;;;;5052474;28;20116;-78
2022/10/24 12:27:55;;;;;;;3.67;0.60;;;;;;;;;;5051670;28;20395;-78
2022/10/24 12:30:25;;;;;;;2.50;0.90;;;;;;;;;;5052024;28;20025;-78
2022/10/24 12:32:54;;;;;;;2.88;1.02;;;;;;;;;;5052276;28;20048;-78
2022/10/24 12:35:26;;;;;;;3.80;1.02;;;;;;;;;;5051876;28;20021;-79
2022/10/24 12:37:52;;;;;;;2.92;1.58;;;;;;;;;;5051115;28;20024;-78
2022/10/24 12:40:37;;;;;;;4.47;1.05;;;;;;;;;;5051839;28;20441;-79
2022/10/24 12:43:03;;;;;;;2.55;0.65;;;;;;;;;;5034238;28;20037;-79
2022/10/24 12:45:29;;;;;;;3.83;0.93;;;;;;;;;;5038399;28;20032;-77
2022/10/24 12:47:55;;;;;;;1.25;0.68;;;;;;;;;;5052016;28;20474;-77
2022/10/24 12:50:21;;;;;;;0.77;0.50;;;;;;;;;;5052295;28;20090;-77
2022/10/24 12:52:47;;;;;;;2.50;0.50;;;;;;;;;;5052547;28;20024;-77
2022/10/24 12:55:32;;;;;;;3.03;0.88;;;;;;;;;;5034491;28;20017;-77
2022/10/24 12:57:58;;;;;;;2.03;1.30;;;;;;;;;;5051580;28;20025;-78
2022/10/24 13:00:28;;;;;;;1.80;0.40;;;;;;;;;;5053403;28;20017;-78
2022/10/24 13:03:06;;;;;;;1.48;0.57;;;;;;;;;;5053994;28;20029;-78
2022/10/24 13:05:51;;;;;;;1.38;0.40;;;;;;;;;;5058943;28;20029;-79
2022/10/24 13:08:23;;;;;;;1.00;0.47;;;;;;;;;;5071906;28;20019;-78
2022/10/24 13:11:08;;;;;;;1.48;0.65;;;;;;;;;;5071503;28;20078;-76
2022/10/24 13:13:49;;;;;;;8.00;1.27;;;;;;;;;;5071296;28;20033;-79
2022/10/24 13:16:15;;;;;;;;;;;;;;;;;;5041832;28;20021;-76
2022/10/24 13:18:47;;;;;;;1.83;0.82;;;;;;;;;;5035875;28;19928;-78
2022/10/24 13:21:21;;;;;;;2.75;0.70;;;;;;;;;;5051374;28;20420;-78
2022/10/24 13:23:48;;;;;;;3.13;0.55;;;;;;;;;;5036694;28;20032;-78
2022/10/24 13:26:33;;;;;;;1.63;0.50;;;;;;;;;;5038550;28;20101;-78
2022/10/24 13:28:59;;;;;;;0.68;0.52;;;;;;;;;;5038938;28;20100;-78
2022/10/24 13:31:25;;;;;;;1.17;0.40;;;;;;;;;;5037734;28;20534;-78
2022/10/24 13:33:52;;;;;;;1.33;0.80;;;;;;;;;;5033640;28;20025;-78
2022/10/24 13:36:25;;;;;;;3.70;0.82;;;;;;;;;;5051144;28;20035;-78
2022/10/24 13:39:02;;;;;;;1.92;0.43;;;;;;;;;;5037707;28;20049;-78
2022/10/24 13:41:33;;;;;;;2.47;0.75;;;;;;;;;;5032220;28;20025;-78
2022/10/24 13:44:09;;;;;;;2.08;0.47;;;;;;;;;;5039358;28;20024;-79
2022/10/24 13:46:41;;;;;;;3.17;1.35;;;;;;;;;;5037579;28;20029;-79
2022/10/24 13:49:07;;;;;;;2.92;1.08;;;;;;;;;;5050391;28;20115;-77
2022/10/24 13:51:42;;;;;;;1.75;0.90;;;;;;;;;;5050871;28;20063;-77
2022/10/24 13:54:10;;;;;;;1.23;0.70;;;;;;;;;;5051947;28;20053;-76
2022/10/24 13:56:37;;;;;;;1.73;0.70;;;;;;;;;;5050752;28;20100;-77
2022/10/24 13:59:03;;;;;;;1.48;0.85;;;;;;;;;;5050198;28;20566;-77
2022/10/24 14:01:30;;;;;;;2.15;0.68;;;;;;;;;;5037402;28;20095;-77
2022/10/24 14:03:57;;;;;;;2.60;0.32;;;;;;;;;;5050770;28;20033;-77
2022/10/24 14:06:31;;;;;;;0.88;0.40;;;;;;;;;;5050429;28;20479;-80
2022/10/24 14:09:00;;;;;;;1.48;0.88;;;;;;;;;;5050548;28;20029;-77
2022/10/24 14:11:27;;;;;;;0.93;0.32;;;;;;;;;;5049420;28;20025;-77
2022/10/24 14:13:55;;;;;;;0.80;0.40;;;;;;;;;;5054339;28;20075;-75
2022/10/24 14:16:28;;;;;;;1.20;0.70;;;;;;;;;;5059735;28;20047;-78
2022/10/24 14:19:11;;;;;;;2.03;0.60;;;;;;;;;;5054291;28;20508;-78
2022/10/24 14:21:44;;;;;;;1.58;0.82;;;;;;;;;;5036749;28;20120;-76
2022/10/24 14:24:15;;;;;;;1.23;0.60;;;;;;;;;;5054965;28;20506;-77
2022/10/24 14:26:42;;;;;;;2.50;0.93;;;;;;;;;;5054431;28;20562;-78
2022/10/24 14:29:27;;;;;;;3.63;0.90;;;;;;;;;;5067126;28;20084;-77
2022/10/24 14:31:56;;;;;;;1.80;1.23;;;;;;;;;;5052980;28;20025;-78
2022/10/24 14:34:23;;;;;;;2.85;1.23;;;;;;;;;;5054874;28;20108;-79
2022/10/24 14:36:49;;;;;;;1.70;1.25;;;;;;;;;;5054553;28;20459;-82
2022/10/24 14:39:22;;;;;;;3.25;1.52;;;;;;;;;;5053968;28;20111;-80
2022/10/24 14:41:48;;;;;;;2.90;1.67;;;;;;;;;;5054489;28;20051;-77
2022/10/24 14:44:15;;;;;;;3.65;2.10;;;;;;;;;;5055011;28;20025;-77
2022/10/24 14:46:42;;;;;;;5.38;2.20;;;;;;;;;;5054676;28;20537;-78
2022/10/24 14:49:26;;;;;;;3.20;1.40;;;;;;;;;;5054383;28;20047;-77
2022/10/24 14:52:16;;;;;;;3.38;1.83;;;;;;;;;;5055155;28;20114;-79
2022/10/24 14:54:53;;;;;;;1.23;0.90;;;;;;;;;;5041394;28;20083;-79
2022/10/24 14:57:21;;;;;;;1.67;1.02;;;;;;;;;;5054199;28;20017;-78
2022/10/24 14:59:49;;;;;;;1.88;0.93;;;;;;;;;;5054285;28;20049;-79
2022/10/24 15:02:32;;;;;;;3.80;0.85;;;;;;;;;;5054614;28;20104;-77
2022/10/24 15:05:17;;;;;;;2.05;1.08;;;;;;;;;;5054025;28;20396;-79
2022/10/24 15:07:46;;;;;;;3.00;1.10;;;;;;;;;;5054537;28;20021;-78
2022/10/24 15:10:12;;;;;;;3.53;1.23;;;;;;;;;;5033850;28;20519;-78
2022/10/24 15:12:46;;;;;;;4.28;1.00;;;;;;;;;;5054218;28;20064;-75
2022/10/24 15:15:32;;;;;;;1.63;1.00;;;;;;;;;;5054931;28;20017;-78
2022/10/24 15:18:04;;;;;;;3.92;1.48;;;;;;;;;;5035548;28;20037;-78
2022/10/24 15:20:33;;;;;;;2.67;0.73;;;;;;;;;;5054099;28;20044;-79
2022/10/24 15:23:02;;;;;;;1.65;0.80;;;;;;;;;;5053657;28;20031;-77
2022/10/24 15:25:29;;;;;;;3.72;0.95;;;;;;;;;;5039421;28;20235;-77
2022/10/24 15:28:00;;;;;;;2.40;0.80;;;;;;;;;;5052867;28;20032;-77
2022/10/24 15:30:31;;;;;;;1.02;0.55;;;;;;;;;;5051440;28;20029;-81
2022/10/24 15:32:59;;;;;;;2.17;0.50;;;;;;;;;;5032367;28;20039;-79
2022/10/24 15:35:25;;;;;;;1.73;0.70;;;;;;;;;;5053166;28;20181;-78
2022/10/24 15:37:58;;;;;;;1.55;0.70;;;;;;;;;;5053633;28;20062;-81
2022/10/24 15:40:26;;;;;;;1.67;0.85;;;;;;;;;;5036147;28;20029;-79
2022/10/24 15:42:52;;;;;;;3.28;1.13;;;;;;;;;;5035871;28;20021;-78
2022/10/24 15:45:18;;;;;;;1.15;0.70;;;;;;;;;;5054147;28;20025;-77
2022/10/24 15:47:44;;;;;;;1.33;0.75;;;;;;;;;;5061613;28;20081;-77